Time;durP1;ratioP1;P1;durP2;ratioP2;P2;SDS_P1;SDS_P2;PMS_P1;PMS_P2;Temp;Humidity;BMP_temperature;BMP_pressure;BME280_temperature;BME280_humidity;BME280_pressure;Samples;Min_cycle;Max_cycle;Signal;HPM_P1;HPM_P2
2021/12/22 00:02:05;;;;;;;69.37;62.67;;;0.60;99.90;;;;;;4971207;28;20231;-79
2021/12/22 00:04:33;;;;;;;67.70;61.03;;;0.60;99.90;;;;;;4970833;28;20216;-78
2021/12/22 00:06:59;;;;;;;67.03;60.00;;;0.60;99.90;;;;;;4971783;28;20311;-79
2021/12/22 00:09:25;;;;;;;69.33;61.93;;;0.60;99.90;;;;;;4970709;28;20572;-79
2021/12/22 00:11:50;;;;;;;66.93;60.17;;;0.60;99.90;;;;;;4975749;28;20231;-79
2021/12/22 00:14:16;;;;;;;71.83;64.43;;;0.60;99.90;;;;;;4989739;28;20231;-79
2021/12/22 00:16:42;;;;;;;68.60;62.27;;;0.60;99.90;;;;;;5000399;28;20231;-79
2021/12/22 00:19:08;;;;;;;73.23;66.57;;;0.50;99.90;;;;;;4984487;28;21513;-78
2021/12/22 00:21:34;;;;;;;72.83;65.57;;;0.50;99.90;;;;;;4989651;28;20203;-79
2021/12/22 00:24:00;;;;;;;70.43;63.60;;;0.50;99.90;;;;;;4990805;28;20202;-78
2021/12/22 00:26:26;;;;;;;72.23;65.20;;;0.50;99.90;;;;;;4990497;28;20697;-78
2021/12/22 00:28:52;;;;;;;71.63;63.87;;;0.50;99.90;;;;;;4981576;28;20191;-80
2021/12/22 00:31:20;;;;;;;74.13;66.90;;;0.50;99.90;;;;;;4982493;28;20314;-79
2021/12/22 00:33:51;;;;;;;78.67;71.40;;;0.50;99.90;;;;;;5000128;28;20188;-80
2021/12/22 00:36:20;;;;;;;81.50;73.27;;;0.50;99.90;;;;;;4992155;28;20216;-80
2021/12/22 00:38:46;;;;;;;81.10;73.43;;;0.50;99.90;;;;;;4989636;28;20187;-80
2021/12/22 00:41:12;;;;;;;80.20;72.83;;;0.50;99.90;;;;;;5000609;28;20720;-79
2021/12/22 00:43:38;;;;;;;84.73;76.60;;;0.50;99.90;;;;;;4984703;28;20267;-79
2021/12/22 00:46:04;;;;;;;83.73;75.87;;;0.50;99.90;;;;;;4957063;28;20756;-78
2021/12/22 00:48:31;;;;;;;82.47;74.57;;;0.50;99.90;;;;;;4957363;28;20583;-78
2021/12/22 00:50:56;;;;;;;82.27;74.73;;;0.50;99.90;;;;;;4966797;28;20196;-79
2021/12/22 00:53:22;;;;;;;83.13;75.67;;;0.40;99.90;;;;;;4999584;28;20195;-79
2021/12/22 00:55:48;;;;;;;85.43;77.63;;;0.40;99.90;;;;;;4973473;28;20216;-80
2021/12/22 00:58:15;;;;;;;86.17;78.33;;;0.40;99.90;;;;;;4982014;28;20291;-79
2021/12/22 01:00:41;;;;;;;82.23;74.43;;;0.40;99.90;;;;;;4989016;28;20194;-80
2021/12/22 01:03:07;;;;;;;78.87;71.97;;;0.40;99.90;;;;;;4989466;28;20275;-79
2021/12/22 01:05:33;;;;;;;81.27;73.60;;;0.40;99.90;;;;;;4989355;28;20622;-78
2021/12/22 01:07:59;;;;;;;79.67;71.70;;;0.40;99.90;;;;;;4981280;28;20199;-80
2021/12/22 01:10:28;;;;;;;80.30;72.93;;;0.40;99.90;;;;;;4999617;28;20187;-79
2021/12/22 01:12:56;;;;;;;82.30;72.43;;;0.30;99.90;;;;;;4988419;28;20212;-79
2021/12/22 01:15:24;;;;;;;73.63;66.70;;;0.30;99.90;;;;;;5005502;28;20199;-79
2021/12/22 01:17:58;;;;;;;72.90;65.27;;;0.30;99.90;;;;;;4966335;28;20242;-79
2021/12/22 01:20:32;;;;;;;71.77;64.87;;;0.40;99.90;;;;;;4967440;28;20210;-79
2021/12/22 01:23:06;;;;;;;68.30;61.77;;;0.40;99.90;;;;;;4988234;28;20591;-78
2021/12/22 01:25:37;;;;;;;68.00;58.20;;;0.40;99.90;;;;;;4997987;28;20704;-80
2021/12/22 01:28:03;;;;;;;61.97;54.37;;;0.40;99.90;;;;;;4982463;28;20230;-80
2021/12/22 01:30:31;;;;;;;63.53;56.17;;;0.40;99.90;;;;;;4988667;28;20298;-79
2021/12/22 01:33:00;;;;;;;64.80;57.70;;;0.40;99.90;;;;;;5005414;28;20206;-79
2021/12/22 01:35:29;;;;;;;65.63;59.23;;;0.40;99.90;;;;;;4997643;28;20191;-78
2021/12/22 01:37:55;;;;;;;68.83;60.50;;;0.40;99.90;;;;;;4999523;28;20187;-79
2021/12/22 01:40:22;;;;;;;68.03;60.77;;;0.40;99.90;;;;;;4973579;28;20257;-79
2021/12/22 01:42:48;;;;;;;65.60;59.27;;;0.40;99.90;;;;;;4981967;28;20207;-80
2021/12/22 01:46:08;;;;;;;71.23;60.13;;;0.40;99.90;;;;;;4972891;28;20648;-79
2021/12/22 01:49:11;;;;;;;62.97;56.73;;;0.40;99.90;;;;;;5004354;28;20183;-80
2021/12/22 01:52:05;;;;;;;62.07;55.37;;;0.50;99.90;;;;;;4989608;28;20179;-80
2021/12/22 01:54:47;;;;;;;66.17;59.23;;;0.50;99.90;;;;;;4998653;28;20184;-80
2021/12/22 01:57:14;;;;;;;62.97;56.33;;;0.50;99.90;;;;;;4999873;28;20579;-80
2021/12/22 01:59:42;;;;;;;68.70;58.03;;;0.50;99.90;;;;;;4998130;28;20195;-78
2021/12/22 02:02:11;;;;;;;64.33;57.37;;;0.50;99.90;;;;;;4987797;28;20593;-80
2021/12/22 02:04:38;;;;;;;65.40;58.60;;;0.50;99.90;;;;;;4998992;28;20265;-79
2021/12/22 02:07:05;;;;;;;69.03;61.87;;;0.40;99.90;;;;;;4989564;28;20199;-80
2021/12/22 02:12:15;;;;;;;76.47;68.80;;;0.40;99.90;;;;;;4987962;28;20795;-79
2021/12/22 02:14:42;;;;;;;79.03;71.53;;;0.30;99.90;;;;;;5009118;28;20208;-80
2021/12/22 02:17:10;;;;;;;79.67;71.57;;;0.30;99.90;;;;;;4969519;28;20253;-80
2021/12/22 02:19:43;;;;;;;73.67;66.33;;;0.20;99.90;;;;;;4992682;28;20843;-80
2021/12/22 02:22:11;;;;;;;74.47;66.60;;;0.20;99.90;;;;;;5002517;28;20186;-78
2021/12/22 02:24:37;;;;;;;76.50;67.07;;;0.20;99.90;;;;;;4991907;28;20187;-79
2021/12/22 02:27:14;;;;;;;79.33;69.57;;;0.30;99.90;;;;;;4969487;28;20254;-80
2021/12/22 02:29:41;;;;;;;71.57;64.53;;;0.20;99.90;;;;;;5001882;28;20604;-80
2021/12/22 02:35:03;;;;;;;71.10;64.07;;;0.30;99.90;;;;;;4965423;28;20204;-80
2021/12/22 02:37:30;;;;;;;69.63;63.10;;;0.20;99.90;;;;;;4977099;28;20270;-79
2021/12/22 02:40:09;;;;;;;74.03;66.10;;;0.20;99.90;;;;;;4969669;28;20206;-80
2021/12/22 02:42:35;;;;;;;78.87;70.47;;;0.20;99.90;;;;;;5002938;28;20219;-78
2021/12/22 02:45:11;;;;;;;77.77;70.17;;;0.30;99.90;;;;;;4977322;28;20177;-80
2021/12/22 02:47:36;;;;;;;80.10;72.87;;;0.20;99.90;;;;;;4986481;28;20278;-80
2021/12/22 02:50:04;;;;;;;79.13;71.63;;;0.20;99.90;;;;;;4974896;28;20685;-81
2021/12/22 02:52:37;;;;;;;83.53;76.00;;;0.20;99.90;;;;;;5002221;28;20196;-80
2021/12/22 02:55:04;;;;;;;80.33;73.23;;;0.10;99.90;;;;;;4993999;28;20187;-79
2021/12/22 02:57:41;;;;;;;84.97;76.80;;;0.10;99.90;;;;;;4978390;28;20212;-80
2021/12/22 03:05:23;;;;;;;85.90;77.07;;;0.10;99.90;;;;;;5005590;28;20633;-79
2021/12/22 03:07:49;;;;;;;86.03;77.43;;;0.10;99.90;;;;;;4977605;28;20191;-80
2021/12/22 03:10:18;;;;;;;89.40;81.17;;;0.10;99.90;;;;;;4977702;28;20206;-79
2021/12/22 03:12:47;;;;;;;86.60;78.40;;;0.10;99.90;;;;;;5001897;28;20250;-80
2021/12/22 03:15:13;;;;;;;87.97;80.20;;;0.00;99.90;;;;;;4992990;28;20201;-79
2021/12/22 03:17:39;;;;;;;88.83;80.60;;;0.10;99.90;;;;;;4969724;28;20694;-80
2021/12/22 03:20:12;;;;;;;90.47;81.63;;;0.00;99.90;;;;;;4970941;28;20187;-80
2021/12/22 03:22:38;;;;;;;90.50;81.60;;;0.00;99.90;;;;;;4976816;28;20195;-80
2021/12/22 03:25:14;;;;;;;92.13;83.97;;;0.00;99.90;;;;;;4986575;28;20187;-80
2021/12/22 03:27:46;;;;;;;93.67;85.43;;;0.00;99.90;;;;;;5003028;28;20191;-79
2021/12/22 03:30:15;;;;;;;95.03;86.70;;;0.00;99.90;;;;;;4992609;28;20695;-81
2021/12/22 03:32:41;;;;;;;98.80;89.83;;;0.00;99.90;;;;;;4976192;28;20347;-80
2021/12/22 03:35:08;;;;;;;96.57;87.90;;;-0.10;99.90;;;;;;5004124;28;20283;-80
2021/12/22 03:37:34;;;;;;;99.00;89.57;;;-0.10;99.90;;;;;;4977583;28;20227;-79
2021/12/22 03:40:00;;;;;;;96.60;87.37;;;-0.10;99.90;;;;;;5002809;28;20199;-80
2021/12/22 03:42:25;;;;;;;88.40;80.33;;;-0.10;99.90;;;;;;4988224;28;20208;-80
2021/12/22 03:44:51;;;;;;;86.50;78.50;;;-0.10;99.90;;;;;;4969272;28;20242;-78
2021/12/22 03:47:17;;;;;;;88.53;79.90;;;-0.10;99.90;;;;;;4981434;28;20206;-81
2021/12/22 03:49:42;;;;;;;94.00;85.10;;;-0.10;99.90;;;;;;5008865;28;20198;-80
2021/12/22 03:52:08;;;;;;;90.77;82.57;;;-0.10;99.90;;;;;;4958664;28;20192;-80
2021/12/22 03:54:34;;;;;;;92.00;83.43;;;-0.10;99.90;;;;;;4987085;28;20259;-80
2021/12/22 03:57:00;;;;;;;94.10;84.73;;;-0.10;99.90;;;;;;4977532;28;20223;-81
2021/12/22 03:59:26;;;;;;;95.60;86.60;;;-0.20;99.90;;;;;;4991995;28;20286;-80
2021/12/22 04:01:52;;;;;;;94.80;86.13;;;-0.20;99.90;;;;;;4994934;28;20290;-80
2021/12/22 04:04:19;;;;;;;89.37;81.73;;;-0.20;99.90;;;;;;5009642;28;20212;-80
2021/12/22 04:06:50;;;;;;;90.13;81.97;;;-0.20;99.90;;;;;;4954491;28;20196;-80
2021/12/22 04:09:16;;;;;;;91.47;82.63;;;-0.20;99.90;;;;;;5003717;28;20447;-78
2021/12/22 04:11:43;;;;;;;89.87;81.27;;;-0.20;99.90;;;;;;4990608;28;20231;-79
2021/12/22 04:14:10;;;;;;;89.07;80.60;;;-0.20;99.90;;;;;;5002850;28;20195;-80
2021/12/22 04:16:36;;;;;;;91.37;82.67;;;-0.20;99.90;;;;;;4976371;28;20208;-80
2021/12/22 04:19:02;;;;;;;89.87;82.43;;;-0.20;99.90;;;;;;4977513;28;20214;-80
2021/12/22 04:21:29;;;;;;;96.27;87.67;;;-0.30;99.90;;;;;;4969516;28;20279;-79
2021/12/22 04:23:55;;;;;;;98.80;89.30;;;-0.30;99.90;;;;;;4955228;28;20186;-78
2021/12/22 04:26:21;;;;;;;95.27;86.63;;;-0.30;99.90;;;;;;4991853;28;20246;-80
2021/12/22 04:28:47;;;;;;;93.50;84.50;;;-0.40;99.90;;;;;;5002413;28;20649;-79
2021/12/22 04:31:12;;;;;;;98.27;89.83;;;-0.30;99.90;;;;;;4958999;28;20203;-80
2021/12/22 04:33:38;;;;;;;96.27;87.47;;;-0.40;99.90;;;;;;4991546;28;20198;-79
2021/12/22 04:36:04;;;;;;;97.53;88.73;;;-0.40;99.90;;;;;;4975827;28;20203;-79
2021/12/22 04:38:30;;;;;;;97.13;88.63;;;-0.40;99.90;;;;;;4984043;28;20184;-80
2021/12/22 04:40:55;;;;;;;91.83;83.67;;;-0.40;99.90;;;;;;5001749;28;20716;-79
2021/12/22 04:43:21;;;;;;;92.37;83.97;;;-0.40;99.90;;;;;;4958317;28;20224;-79
2021/12/22 04:45:47;;;;;;;93.70;85.13;;;-0.40;99.90;;;;;;4990135;28;20198;-78
2021/12/22 04:48:13;;;;;;;92.13;83.37;;;-0.40;99.90;;;;;;5001499;28;20196;-80
2021/12/22 04:50:38;;;;;;;91.43;83.27;;;-0.40;99.90;;;;;;4954283;28;20665;-80
2021/12/22 04:53:16;;;;;;;90.07;81.67;;;-0.40;99.90;;;;;;4991663;28;20192;-81
2021/12/22 04:55:42;;;;;;;89.23;80.07;;;-0.50;99.90;;;;;;5002011;28;20641;-79
2021/12/22 04:58:08;;;;;;;92.33;83.90;;;-0.50;99.90;;;;;;4976531;28;20299;-80
2021/12/22 05:00:35;;;;;;;91.63;83.27;;;-0.50;99.90;;;;;;4975205;28;20210;-80
2021/12/22 05:03:01;;;;;;;89.63;81.37;;;-0.50;99.90;;;;;;4967084;28;20620;-79
2021/12/22 05:05:28;;;;;;;89.77;80.70;;;-0.50;99.90;;;;;;5006583;28;20226;-80
2021/12/22 05:07:55;;;;;;;93.47;84.57;;;-0.50;99.90;;;;;;4991679;28;20266;-80
2021/12/22 05:10:22;;;;;;;92.30;84.00;;;-0.50;99.90;;;;;;4968230;28;20179;-80
2021/12/22 05:12:48;;;;;;;93.50;84.97;;;-0.50;99.90;;;;;;4967295;28;20228;-79
2021/12/22 05:15:19;;;;;;;92.37;84.20;;;-0.60;99.90;;;;;;4971265;28;20208;-79
2021/12/22 05:20:12;;;;;;;95.47;86.70;;;-0.50;99.90;;;;;;4979746;28;20715;-80
2021/12/22 05:22:38;;;;;;;96.47;88.03;;;-0.60;99.90;;;;;;4980234;28;20310;-80
2021/12/22 05:25:06;;;;;;;97.37;87.97;;;-0.60;99.90;;;;;;4964031;28;21113;-80
2021/12/22 05:27:32;;;;;;;94.27;85.60;;;-0.60;99.90;;;;;;4969571;28;20279;-80
2021/12/22 05:29:59;;;;;;;97.90;89.67;;;-0.70;99.90;;;;;;4969927;28;20228;-80
2021/12/22 05:32:31;;;;;;;98.90;89.67;;;-0.70;99.90;;;;;;4948981;28;20192;-80
2021/12/22 05:34:57;;;;;;;102.23;93.33;;;-0.70;99.90;;;;;;4979098;28;20188;-80
2021/12/22 05:37:23;;;;;;;104.07;95.03;;;-0.70;99.90;;;;;;4978765;28;20656;-81
2021/12/22 05:39:49;;;;;;;99.23;90.57;;;-0.70;99.90;;;;;;4970856;28;20220;-79
2021/12/22 05:42:14;;;;;;;96.67;88.13;;;-0.70;99.90;;;;;;4979617;28;20236;-80
2021/12/22 05:44:41;;;;;;;100.97;92.57;;;-0.70;99.90;;;;;;4982098;28;20662;-80
2021/12/22 05:47:07;;;;;;;98.23;89.70;;;-0.70;99.90;;;;;;4958137;28;20311;-80
2021/12/22 05:49:32;;;;;;;96.33;87.20;;;-0.70;99.90;;;;;;4966477;28;20284;-80
2021/12/22 05:51:58;;;;;;;96.27;87.27;;;-0.70;99.90;;;;;;4975612;28;20184;-80
2021/12/22 05:54:24;;;;;;;95.77;87.47;;;-0.70;99.90;;;;;;4985145;28;20219;-79
2021/12/22 05:56:49;;;;;;;95.93;87.47;;;-0.70;99.90;;;;;;4942850;28;20228;-81
2021/12/22 05:59:15;;;;;;;97.10;87.63;;;-0.70;99.90;;;;;;4974114;28;20208;-79
2021/12/22 06:01:41;;;;;;;97.40;88.83;;;-0.80;99.90;;;;;;4968379;28;20196;-79
2021/12/22 06:04:07;;;;;;;98.70;90.13;;;-0.70;99.90;;;;;;4958699;28;20224;-79
2021/12/22 06:06:33;;;;;;;96.03;86.97;;;-0.70;99.90;;;;;;4968613;28;20189;-77
2021/12/22 06:09:00;;;;;;;92.43;84.17;;;-0.70;99.90;;;;;;4982183;28;20204;-80
2021/12/22 06:11:26;;;;;;;91.70;83.33;;;-0.70;99.90;;;;;;4987286;28;20235;-79
2021/12/22 06:13:51;;;;;;;93.60;84.93;;;-0.70;99.90;;;;;;4987647;28;20198;-80
2021/12/22 06:16:17;;;;;;;88.87;81.20;;;-0.70;99.90;;;;;;4978227;28;20216;-80
2021/12/22 06:18:44;;;;;;;97.47;89.50;;;-0.70;99.90;;;;;;4988992;28;20247;-79
2021/12/22 06:21:13;;;;;;;97.47;88.87;;;-0.70;99.90;;;;;;4957016;28;20599;-79
2021/12/22 06:23:39;;;;;;;94.77;85.40;;;-0.80;99.90;;;;;;5009615;28;20181;-80
2021/12/22 06:26:05;;;;;;;93.87;85.87;;;-0.80;99.90;;;;;;4977818;28;20274;-81
2021/12/22 06:28:30;;;;;;;95.60;87.13;;;-0.80;99.90;;;;;;4994067;28;20261;-80
2021/12/22 06:30:56;;;;;;;92.50;84.37;;;-0.80;99.90;;;;;;4986004;28;20192;-82
2021/12/22 06:33:22;;;;;;;92.07;83.87;;;-0.80;99.90;;;;;;4987011;28;20827;-80
2021/12/22 06:35:48;;;;;;;88.43;80.23;;;-0.80;99.90;;;;;;4977234;28;20691;-80
2021/12/22 06:38:16;;;;;;;89.27;80.73;;;-0.80;99.90;;;;;;4969573;28;20187;-79
2021/12/22 06:40:42;;;;;;;90.30;82.30;;;-0.80;99.90;;;;;;5003240;28;20249;-79
2021/12/22 06:43:09;;;;;;;87.60;79.50;;;-0.80;99.90;;;;;;4985861;28;20582;-80
2021/12/22 06:45:35;;;;;;;86.20;78.10;;;-0.80;99.90;;;;;;4977864;28;20305;-80
2021/12/22 06:48:01;;;;;;;89.53;81.80;;;-0.70;99.90;;;;;;5009416;28;20307;-81
2021/12/22 06:50:27;;;;;;;92.77;84.83;;;-0.80;99.90;;;;;;4987809;28;20193;-80
2021/12/22 06:52:55;;;;;;;90.87;82.80;;;-0.80;99.90;;;;;;5005737;28;20269;-80
2021/12/22 06:55:22;;;;;;;93.47;85.03;;;-0.80;99.90;;;;;;4977622;28;20520;-81
2021/12/22 06:57:48;;;;;;;90.87;82.70;;;-0.80;99.90;;;;;;4953873;28;20231;-81
2021/12/22 07:00:14;;;;;;;88.93;80.50;;;-0.80;99.90;;;;;;4970641;28;20187;-81
2021/12/22 07:02:40;;;;;;;90.30;82.10;;;-0.80;99.90;;;;;;4976333;28;20195;-81
2021/12/22 07:05:09;;;;;;;91.93;83.67;;;-0.80;99.90;;;;;;5003607;28;20273;-81
2021/12/22 07:07:35;;;;;;;93.30;84.83;;;-0.80;99.90;;;;;;5002836;28;20179;-79
2021/12/22 07:10:03;;;;;;;89.63;81.67;;;-0.80;99.90;;;;;;4960793;28;20295;-79
2021/12/22 07:12:29;;;;;;;92.00;83.50;;;-0.80;99.90;;;;;;5002710;28;20224;-80
2021/12/22 07:14:54;;;;;;;88.63;80.90;;;-0.80;99.90;;;;;;4991690;28;20610;-80
2021/12/22 07:17:22;;;;;;;91.47;83.77;;;-0.90;99.90;;;;;;4985841;28;20349;-79
2021/12/22 07:19:47;;;;;;;89.10;81.03;;;-0.90;99.90;;;;;;4959865;28;20683;-79
2021/12/22 07:22:13;;;;;;;90.33;82.63;;;-0.90;99.90;;;;;;4960905;28;20576;-79
2021/12/22 07:24:39;;;;;;;97.17;89.17;;;-0.90;99.90;;;;;;4987328;28;20889;-80
2021/12/22 07:27:04;;;;;;;99.20;90.37;;;-0.90;99.90;;;;;;5003810;28;20208;-80
2021/12/22 07:29:30;;;;;;;101.30;92.97;;;-1.00;99.90;;;;;;4982983;28;20202;-81
2021/12/22 07:31:56;;;;;;;99.60;91.30;;;-0.90;99.90;;;;;;4991842;28;20195;-79
2021/12/22 07:34:33;;;;;;;103.30;94.43;;;-1.00;99.90;;;;;;4986382;28;20199;-80
2021/12/22 07:37:45;;;;;;;103.20;95.00;;;-1.00;99.90;;;;;;4990854;28;20220;-80
2021/12/22 07:40:13;;;;;;;102.17;92.80;;;-1.00;99.90;;;;;;4964144;28;20646;-80
2021/12/22 07:42:40;;;;;;;104.50;96.03;;;-1.00;99.90;;;;;;4985305;28;20876;-79
2021/12/22 07:45:06;;;;;;;107.03;98.50;;;-1.00;99.90;;;;;;4992015;28;20244;-81
2021/12/22 07:47:32;;;;;;;100.40;92.27;;;-1.00;99.90;;;;;;5002101;28;20180;-80
2021/12/22 07:49:58;;;;;;;106.03;96.83;;;-1.00;99.90;;;;;;5001203;28;20222;-79
2021/12/22 07:52:27;;;;;;;105.37;97.17;;;-1.10;99.90;;;;;;4984469;28;20798;-79
2021/12/22 07:54:53;;;;;;;105.50;97.43;;;-1.00;99.90;;;;;;4987285;28;20192;-80
2021/12/22 07:57:19;;;;;;;108.07;99.27;;;-1.00;99.90;;;;;;4990258;28;20273;-79
2021/12/22 07:59:45;;;;;;;108.13;99.83;;;-1.00;99.90;;;;;;4986366;28;20187;-80
2021/12/22 08:02:12;;;;;;;107.83;98.83;;;-1.00;99.90;;;;;;4976119;28;20250;-80
2021/12/22 08:04:38;;;;;;;106.60;97.93;;;-0.90;99.90;;;;;;4975607;28;20224;-80
2021/12/22 08:07:03;;;;;;;104.63;95.80;;;-0.90;99.90;;;;;;4990894;28;20598;-81
2021/12/22 08:09:29;;;;;;;103.07;94.60;;;-0.90;99.90;;;;;;4968921;28;20873;-81
2021/12/22 08:12:03;;;;;;;100.83;92.30;;;-0.80;99.90;;;;;;4965505;28;20311;-81
2021/12/22 08:14:30;;;;;;;105.23;96.60;;;-0.70;99.90;;;;;;4985234;28;20638;-81
2021/12/22 08:16:55;;;;;;;102.97;94.67;;;-0.70;99.90;;;;;;4972244;28;20223;-80
2021/12/22 08:19:21;;;;;;;95.60;87.97;;;-0.60;99.90;;;;;;4964373;28;20192;-80
2021/12/22 08:21:47;;;;;;;100.03;91.97;;;-0.40;99.90;;;;;;4954371;28;20250;-80
2021/12/22 08:24:14;;;;;;;99.27;91.37;;;-0.10;99.90;;;;;;4965727;28;20188;-80
2021/12/22 08:26:40;;;;;;;99.23;91.13;;;0.10;99.90;;;;;;4979672;28;20217;-79
2021/12/22 08:29:05;;;;;;;99.53;91.93;;;0.40;99.90;;;;;;4965573;28;20189;-80
2021/12/22 08:31:31;;;;;;;98.43;90.03;;;0.40;99.90;;;;;;4963633;28;20216;-79
2021/12/22 08:33:57;;;;;;;102.27;94.27;;;0.30;99.90;;;;;;4948685;28;20557;-80
2021/12/22 08:39:11;;;;;;;97.87;90.37;;;0.10;99.90;;;;;;4968020;28;20187;-81
2021/12/22 08:41:40;;;;;;;91.70;84.30;;;0.10;99.90;;;;;;4981176;28;20200;-81
2021/12/22 08:44:08;;;;;;;94.27;87.17;;;0.00;99.90;;;;;;4989545;28;20196;-80
2021/12/22 08:46:37;;;;;;;90.47;83.80;;;0.00;99.90;;;;;;4963989;28;20189;-79
2021/12/22 08:49:05;;;;;;;88.03;81.73;;;0.00;99.90;;;;;;4964775;28;20196;-80
2021/12/22 08:51:31;;;;;;;84.33;78.10;;;0.10;99.90;;;;;;4965383;28;20234;-80
2021/12/22 08:53:57;;;;;;;81.17;74.70;;;0.10;99.90;;;;;;4980303;28;20692;-81
2021/12/22 08:56:23;;;;;;;76.90;70.90;;;0.10;99.90;;;;;;4971551;28;20266;-81
2021/12/22 08:58:49;;;;;;;78.93;72.33;;;0.20;99.90;;;;;;4971449;28;20215;-80
2021/12/22 09:01:15;;;;;;;73.90;68.17;;;0.30;99.90;;;;;;4956030;28;20307;-80
2021/12/22 09:03:41;;;;;;;69.53;63.90;;;0.30;99.90;;;;;;4948168;28;20736;-80
2021/12/22 09:06:07;;;;;;;69.43;63.73;;;0.50;99.90;;;;;;4970993;28;20199;-80
2021/12/22 09:08:32;;;;;;;66.53;60.90;;;0.50;99.90;;;;;;4963376;28;20192;-80
2021/12/22 09:10:58;;;;;;;66.43;61.00;;;0.60;99.90;;;;;;4962018;28;20690;-81
2021/12/22 09:13:24;;;;;;;66.17;60.27;;;0.60;99.90;;;;;;4980525;28;20236;-81
2021/12/22 09:15:50;;;;;;;65.23;59.67;;;0.70;99.90;;;;;;4970631;28;20924;-80
2021/12/22 09:18:17;;;;;;;59.27;54.20;;;0.70;99.90;;;;;;4972954;28;20207;-80
2021/12/22 09:20:43;;;;;;;59.67;54.23;;;0.70;99.90;;;;;;4980240;28;20288;-80
2021/12/22 09:23:08;;;;;;;61.30;55.80;;;0.70;99.90;;;;;;4987312;28;20208;-81
2021/12/22 09:25:34;;;;;;;58.13;53.53;;;0.70;99.90;;;;;;4956494;28;20193;-80
2021/12/22 09:28:01;;;;;;;59.37;54.30;;;0.70;99.90;;;;;;4972065;28;20267;-81
2021/12/22 09:30:35;;;;;;;57.13;52.40;;;0.70;99.90;;;;;;4956644;28;20196;-81
2021/12/22 09:33:05;;;;;;;57.57;51.83;;;0.70;99.90;;;;;;4963221;28;20630;-81
2021/12/22 09:35:30;;;;;;;58.60;53.00;;;0.70;99.90;;;;;;4979513;28;20669;-81
2021/12/22 09:37:56;;;;;;;53.60;48.40;;;0.60;99.90;;;;;;4953630;28;20208;-80
2021/12/22 09:40:24;;;;;;;53.00;48.50;;;0.70;99.90;;;;;;4977272;28;20200;-79
2021/12/22 09:42:49;;;;;;;53.73;48.87;;;0.70;99.90;;;;;;4953010;28;20228;-80
2021/12/22 09:45:16;;;;;;;51.83;46.87;;;0.70;99.90;;;;;;4961879;28;20204;-79
2021/12/22 09:48:03;;;;;;;47.93;43.17;;;0.70;99.90;;;;;;4947909;28;20510;-80
2021/12/22 09:53:27;;;;;;;45.77;41.33;;;0.80;99.90;;;;;;4941477;28;20202;-81
2021/12/22 09:55:54;;;;;;;44.83;40.13;;;0.90;99.90;;;;;;4970122;28;20211;-79
2021/12/22 09:58:20;;;;;;;42.73;38.30;;;1.00;99.90;;;;;;4937767;28;20251;-81
2021/12/22 10:00:47;;;;;;;43.23;39.00;;;1.00;99.90;;;;;;4970203;28;20188;-80
2021/12/22 10:03:14;;;;;;;43.77;39.53;;;1.10;99.90;;;;;;4952849;28;20239;-80
2021/12/22 10:05:41;;;;;;;43.07;38.40;;;1.10;99.90;;;;;;4965457;28;20192;-80
2021/12/22 10:08:09;;;;;;;37.93;33.97;;;1.10;99.90;;;;;;4954927;28;20729;-80
2021/12/22 10:10:40;;;;;;;39.17;35.10;;;1.20;99.90;;;;;;4970481;28;20223;-80
2021/12/22 10:13:09;;;;;;;36.93;33.33;;;1.10;99.90;;;;;;4975188;28;20254;-80
2021/12/22 10:15:36;;;;;;;38.50;34.87;;;1.20;99.90;;;;;;4982529;28;20254;-80
2021/12/22 10:18:28;;;;;;;34.43;30.80;;;1.20;99.90;;;;;;4990089;28;20226;-81
2021/12/22 10:21:09;;;;;;;35.60;29.67;;;1.20;99.90;;;;;;4985916;28;20208;-80
2021/12/22 10:23:35;;;;;;;31.50;28.20;;;1.20;99.90;;;;;;4989429;28;20179;-81
2021/12/22 10:26:04;;;;;;;28.63;25.73;;;1.30;99.90;;;;;;4968697;28;20202;-81
2021/12/22 10:28:45;;;;;;;29.43;26.37;;;1.30;99.90;;;;;;5001479;28;20529;-80
2021/12/22 10:31:11;;;;;;;30.40;24.47;;;1.40;99.90;;;;;;4990146;28;20226;-80
2021/12/22 10:33:41;;;;;;;25.03;22.13;;;1.50;99.90;;;;;;4991226;28;20238;-81
2021/12/22 10:36:13;;;;;;;27.47;20.40;;;1.60;99.90;;;;;;5005784;28;20234;-80
2021/12/22 10:38:39;;;;;;;23.33;19.57;;;1.70;99.90;;;;;;4994728;28;20283;-81
2021/12/22 10:41:07;;;;;;;23.83;18.33;;;1.70;99.90;;;;;;5003279;28;20294;-81
2021/12/22 10:43:39;;;;;;;23.67;18.67;;;1.90;99.90;;;;;;4986545;28;20334;-80
2021/12/22 10:46:05;;;;;;;23.23;16.87;;;1.90;99.90;;;;;;5005321;28;20206;-81
2021/12/22 10:51:33;;;;;;;18.93;16.70;;;2.00;99.90;;;;;;5005022;28;20222;-80
2021/12/22 10:54:05;;;;;;;23.40;15.17;;;2.00;99.90;;;;;;4978454;28;20214;-81
2021/12/22 10:56:40;;;;;;;18.67;14.10;;;2.00;99.90;;;;;;4987156;28;20219;-81
2021/12/22 10:59:16;;;;;;;19.47;13.70;;;2.00;99.90;;;;;;5002265;28;20238;-79
2021/12/22 11:02:05;;;;;;;19.47;13.83;;;2.00;99.90;;;;;;5008496;28;20727;-80
2021/12/22 11:04:33;;;;;;;19.63;13.37;;;2.00;99.90;;;;;;4984928;28;20212;-80
2021/12/22 11:07:14;;;;;;;15.97;12.23;;;2.10;99.90;;;;;;4969225;28;20187;-81
2021/12/22 11:09:40;;;;;;;16.63;12.07;;;2.10;99.90;;;;;;5011145;28;20219;-82
2021/12/22 11:12:06;;;;;;;17.90;11.90;;;2.20;99.90;;;;;;5000578;28;20243;-80
2021/12/22 11:14:38;;;;;;;15.47;11.97;;;2.20;99.90;;;;;;5004357;28;20231;-80
2021/12/22 11:17:10;;;;;;;16.87;11.60;;;2.30;99.90;;;;;;5010209;28;20219;-80
2021/12/22 11:19:52;;;;;;;14.03;10.13;;;2.40;99.90;;;;;;4975008;28;20712;-80
2021/12/22 11:22:23;;;;;;;14.97;9.83;;;2.40;99.90;;;;;;5007241;28;20242;-81
2021/12/22 11:24:55;;;;;;;16.10;10.40;;;2.50;99.90;;;;;;4985499;28;20185;-80
2021/12/22 11:27:26;;;;;;;13.87;9.60;;;2.50;99.90;;;;;;5001665;28;21313;-80
2021/12/22 11:29:55;;;;;;;15.23;8.90;;;2.60;99.90;;;;;;5002651;28;20246;-81
2021/12/22 11:32:22;;;;;;;18.17;9.73;;;2.60;99.90;;;;;;4986318;28;20823;-81
2021/12/22 11:34:50;;;;;;;14.53;9.10;;;2.60;99.90;;;;;;4970122;28;20673;-80
2021/12/22 11:37:17;;;;;;;18.53;9.83;;;2.60;99.90;;;;;;5002332;28;20243;-80
2021/12/22 11:39:44;;;;;;;13.10;8.20;;;2.60;99.90;;;;;;4993599;28;20671;-81
2021/12/22 11:42:12;;;;;;;13.60;8.53;;;2.70;99.90;;;;;;4984250;28;20972;-81
2021/12/22 11:44:38;;;;;;;12.40;8.10;;;2.70;99.90;;;;;;4967410;28;20554;-81
2021/12/22 11:47:08;;;;;;;14.07;7.93;;;2.70;99.90;;;;;;4991813;28;20285;-80
2021/12/22 11:49:37;;;;;;;18.17;8.33;;;2.80;99.90;;;;;;4992405;28;20179;-79
2021/12/22 11:52:23;;;;;;;15.00;8.00;;;2.80;99.90;;;;;;4976394;28;20180;-81
2021/12/22 11:55:18;;;;;;;17.50;8.07;;;2.80;99.90;;;;;;4972284;28;20291;-81
2021/12/22 11:57:47;;;;;;;16.00;7.40;;;2.90;99.90;;;;;;4990689;28;20270;-81
2021/12/22 12:00:26;;;;;;;12.97;7.27;;;3.00;99.90;;;;;;5003240;28;20661;-81
2021/12/22 12:02:53;;;;;;;13.47;7.63;;;3.00;99.90;;;;;;5002206;28;20184;-80
2021/12/22 12:05:28;;;;;;;12.37;6.97;;;3.10;99.90;;;;;;5002759;28;20227;-80
2021/12/22 12:08:16;;;;;;;13.73;7.47;;;3.10;99.90;;;;;;4985343;28;20302;-81
2021/12/22 12:10:48;;;;;;;10.33;7.13;;;3.10;99.90;;;;;;5007787;28;20199;-81
2021/12/22 12:13:23;;;;;;;10.80;6.50;;;3.10;99.90;;;;;;4987287;28;20242;-81
2021/12/22 12:22:07;;;;;;;11.43;7.17;;;3.30;99.90;;;;;;5003837;28;20226;-80
2021/12/22 12:24:35;;;;;;;13.90;7.73;;;3.30;99.90;;;;;;4991640;28;20183;-80
2021/12/22 12:27:33;;;;;;;13.53;7.40;;;3.30;99.90;;;;;;5002638;28;20211;-79
2021/12/22 12:30:06;;;;;;;13.70;7.33;;;3.30;99.90;;;;;;5000987;28;20210;-80
2021/12/22 12:32:52;;;;;;;15.83;8.20;;;3.30;99.90;;;;;;5000526;28;20246;-81
2021/12/22 12:35:21;;;;;;;17.03;8.27;;;3.30;99.90;;;;;;5001942;28;20172;-81
2021/12/22 12:38:23;;;;;;;13.43;7.50;;;3.40;99.90;;;;;;5002496;28;20204;-81
2021/12/22 12:40:57;;;;;;;14.60;7.87;;;3.40;99.90;;;;;;4991007;28;20175;-81
2021/12/22 12:43:45;;;;;;;13.40;7.83;;;3.50;99.90;;;;;;4991458;28;20203;-81
2021/12/22 12:46:19;;;;;;;17.77;8.97;;;3.50;99.90;;;;;;5002645;28;20184;-79
2021/12/22 12:48:52;;;;;;;15.90;7.80;;;3.50;99.90;;;;;;4990925;28;20187;-81
2021/12/22 12:51:19;;;;;;;14.27;7.97;;;3.50;99.90;;;;;;4998984;28;20198;-80
2021/12/22 12:53:49;;;;;;;15.67;8.30;;;3.50;99.90;;;;;;5003512;28;20188;-80
2021/12/22 12:56:18;;;;;;;15.37;8.30;;;3.50;99.90;;;;;;5008002;28;20207;-81
2021/12/22 12:58:55;;;;;;;11.53;7.23;;;3.50;99.90;;;;;;4991676;28;20274;-80
2021/12/22 13:01:50;;;;;;;14.73;7.20;;;3.50;99.90;;;;;;5001998;28;20195;-81
2021/12/22 13:04:27;;;;;;;13.50;6.77;;;3.50;99.90;;;;;;4989846;28;20213;-80
2021/12/22 13:07:28;;;;;;;14.13;7.40;;;3.50;99.90;;;;;;5000808;28;20188;-80
2021/12/22 13:10:15;;;;;;;16.20;7.10;;;3.50;99.90;;;;;;4937273;28;20194;-81
2021/12/22 13:18:05;;;;;;;13.50;6.80;;;3.60;99.90;;;;;;5001527;28;20226;-81